sensor_id;sensor_type;location;lat;lon;timestamp;temperature;humidity
17887;DHT22;9069;52.044;7.472;2022-09-23T00:01:05;15.70;66.70
17887;DHT22;9069;52.044;7.472;2022-09-23T00:03:34;15.70;66.90
17887;DHT22;9069;52.044;7.472;2022-09-23T00:06:04;15.70;66.80
17887;DHT22;9069;52.044;7.472;2022-09-23T00:08:31;15.70;66.80
17887;DHT22;9069;52.044;7.472;2022-09-23T00:11:04;15.70;66.80
17887;DHT22;9069;52.044;7.472;2022-09-23T00:13:32;15.70;67.30
17887;DHT22;9069;52.044;7.472;2022-09-23T00:16:04;15.60;66.90
17887;DHT22;9069;52.044;7.472;2022-09-23T00:18:31;15.60;67.00
17887;DHT22;9069;52.044;7.472;2022-09-23T00:21:07;15.60;67.00
17887;DHT22;9069;52.044;7.472;2022-09-23T00:23:36;15.60;67.40
17887;DHT22;9069;52.044;7.472;2022-09-23T00:26:04;15.60;67.00
17887;DHT22;9069;52.044;7.472;2022-09-23T00:28:33;15.60;67.00
17887;DHT22;9069;52.044;7.472;2022-09-23T00:31:08;15.60;67.00
17887;DHT22;9069;52.044;7.472;2022-09-23T00:33:34;15.60;67.30
17887;DHT22;9069;52.044;7.472;2022-09-23T00:36:03;15.60;67.00
17887;DHT22;9069;52.044;7.472;2022-09-23T00:38:31;15.60;67.10
17887;DHT22;9069;52.044;7.472;2022-09-23T00:40:59;15.60;67.00
17887;DHT22;9069;52.044;7.472;2022-09-23T00:43:45;15.60;66.90
17887;DHT22;9069;52.044;7.472;2022-09-23T00:48:56;15.60;67.10
17887;DHT22;9069;52.044;7.472;2022-09-23T00:51:28;15.60;67.10
17887;DHT22;9069;52.044;7.472;2022-09-23T00:53:57;15.60;67.00
17887;DHT22;9069;52.044;7.472;2022-09-23T00:56:24;15.60;66.70
17887;DHT22;9069;52.044;7.472;2022-09-23T00:58:51;15.60;66.80
17887;DHT22;9069;52.044;7.472;2022-09-23T01:01:19;15.60;66.80
17887;DHT22;9069;52.044;7.472;2022-09-23T01:03:46;15.60;66.70
17887;DHT22;9069;52.044;7.472;2022-09-23T01:06:14;15.60;66.70
17887;DHT22;9069;52.044;7.472;2022-09-23T01:08:43;15.60;66.70
17887;DHT22;9069;52.044;7.472;2022-09-23T01:16:47;15.60;67.00
17887;DHT22;9069;52.044;7.472;2022-09-23T01:33:21;15.60;66.50
17887;DHT22;9069;52.044;7.472;2022-09-23T01:36:00;15.60;66.90
17887;DHT22;9069;52.044;7.472;2022-09-23T01:41:43;15.60;66.70
17887;DHT22;9069;52.044;7.472;2022-09-23T01:44:34;15.60;67.10
17887;DHT22;9069;52.044;7.472;2022-09-23T01:55:07;15.50;66.90
17887;DHT22;9069;52.044;7.472;2022-09-23T01:57:44;15.50;66.90
17887;DHT22;9069;52.044;7.472;2022-09-23T02:00:16;15.50;67.00
17887;DHT22;9069;52.044;7.472;2022-09-23T02:03:07;15.50;67.00
17887;DHT22;9069;52.044;7.472;2022-09-23T02:05:44;15.50;67.30
17887;DHT22;9069;52.044;7.472;2022-09-23T02:08:18;15.50;67.00
17887;DHT22;9069;52.044;7.472;2022-09-23T02:10:49;15.50;67.20
17887;DHT22;9069;52.044;7.472;2022-09-23T02:13:29;15.40;67.00
17887;DHT22;9069;52.044;7.472;2022-09-23T02:16:02;15.40;67.30
17887;DHT22;9069;52.044;7.472;2022-09-23T02:18:39;15.40;67.20
17887;DHT22;9069;52.044;7.472;2022-09-23T02:21:09;15.40;67.40
17887;DHT22;9069;52.044;7.472;2022-09-23T02:23:42;15.40;67.10
17887;DHT22;9069;52.044;7.472;2022-09-23T02:26:28;15.40;67.30
17887;DHT22;9069;52.044;7.472;2022-09-23T02:29:18;15.30;67.40
17887;DHT22;9069;52.044;7.472;2022-09-23T02:31:55;15.30;67.60
17887;DHT22;9069;52.044;7.472;2022-09-23T02:37:35;15.30;67.40
17887;DHT22;9069;52.044;7.472;2022-09-23T02:40:31;15.30;67.70
17887;DHT22;9069;52.044;7.472;2022-09-23T02:45:29;15.30;67.40
17887;DHT22;9069;52.044;7.472;2022-09-23T02:48:02;15.20;67.30
17887;DHT22;9069;52.044;7.472;2022-09-23T02:50:32;15.20;67.50
17887;DHT22;9069;52.044;7.472;2022-09-23T02:52:59;15.30;67.50
17887;DHT22;9069;52.044;7.472;2022-09-23T02:55:29;15.20;67.40
17887;DHT22;9069;52.044;7.472;2022-09-23T02:58:02;15.20;67.50
17887;DHT22;9069;52.044;7.472;2022-09-23T03:06:08;15.10;67.70
17887;DHT22;9069;52.044;7.472;2022-09-23T03:08:47;15.10;67.60
17887;DHT22;9069;52.044;7.472;2022-09-23T03:11:16;15.10;67.70
17887;DHT22;9069;52.044;7.472;2022-09-23T03:16:58;15.00;67.80
17887;DHT22;9069;52.044;7.472;2022-09-23T03:19:36;15.00;67.70
17887;DHT22;9069;52.044;7.472;2022-09-23T03:22:20;15.00;67.70
17887;DHT22;9069;52.044;7.472;2022-09-23T03:24:50;15.00;67.90
17887;DHT22;9069;52.044;7.472;2022-09-23T03:27:23;15.00;67.90
17887;DHT22;9069;52.044;7.472;2022-09-23T03:29:52;14.90;68.00
17887;DHT22;9069;52.044;7.472;2022-09-23T03:32:22;14.90;68.00
17887;DHT22;9069;52.044;7.472;2022-09-23T03:34:51;14.90;68.20
17887;DHT22;9069;52.044;7.472;2022-09-23T03:37:28;14.80;68.20
17887;DHT22;9069;52.044;7.472;2022-09-23T03:40:15;14.80;68.30
17887;DHT22;9069;52.044;7.472;2022-09-23T03:42:43;14.80;68.40
17887;DHT22;9069;52.044;7.472;2022-09-23T03:45:12;14.80;68.20
17887;DHT22;9069;52.044;7.472;2022-09-23T03:47:44;14.80;68.30
17887;DHT22;9069;52.044;7.472;2022-09-23T03:50:12;14.70;68.30
17887;DHT22;9069;52.044;7.472;2022-09-23T03:52:39;14.70;68.40
17887;DHT22;9069;52.044;7.472;2022-09-23T03:55:07;14.70;68.30
17887;DHT22;9069;52.044;7.472;2022-09-23T03:57:34;14.70;68.40
17887;DHT22;9069;52.044;7.472;2022-09-23T04:00:02;14.70;68.40
17887;DHT22;9069;52.044;7.472;2022-09-23T04:02:37;14.70;68.50
17887;DHT22;9069;52.044;7.472;2022-09-23T04:05:05;14.60;68.60
17887;DHT22;9069;52.044;7.472;2022-09-23T04:07:32;14.60;68.70
17887;DHT22;9069;52.044;7.472;2022-09-23T04:09:58;14.60;68.60
17887;DHT22;9069;52.044;7.472;2022-09-23T04:12:25;14.60;68.80
17887;DHT22;9069;52.044;7.472;2022-09-23T04:14:52;14.60;68.80
17887;DHT22;9069;52.044;7.472;2022-09-23T04:17:18;14.60;68.80
17887;DHT22;9069;52.044;7.472;2022-09-23T04:19:45;14.50;68.70
17887;DHT22;9069;52.044;7.472;2022-09-23T04:22:12;14.50;68.80
17887;DHT22;9069;52.044;7.472;2022-09-23T04:24:38;14.50;68.80
17887;DHT22;9069;52.044;7.472;2022-09-23T04:27:05;14.50;68.90
17887;DHT22;9069;52.044;7.472;2022-09-23T04:29:32;14.50;68.90
17887;DHT22;9069;52.044;7.472;2022-09-23T04:31:58;14.50;69.00
17887;DHT22;9069;52.044;7.472;2022-09-23T04:34:26;14.50;69.00
17887;DHT22;9069;52.044;7.472;2022-09-23T04:36:52;14.40;69.90
17887;DHT22;9069;52.044;7.472;2022-09-23T04:39:19;14.40;69.20
17887;DHT22;9069;52.044;7.472;2022-09-23T04:41:46;14.40;69.20
17887;DHT22;9069;52.044;7.472;2022-09-23T04:44:13;14.40;69.20
17887;DHT22;9069;52.044;7.472;2022-09-23T04:46:40;14.40;69.30
17887;DHT22;9069;52.044;7.472;2022-09-23T04:49:07;14.40;69.40
17887;DHT22;9069;52.044;7.472;2022-09-23T04:51:34;14.30;69.30
17887;DHT22;9069;52.044;7.472;2022-09-23T04:54:01;14.30;69.40
17887;DHT22;9069;52.044;7.472;2022-09-23T04:56:29;14.30;69.40
17887;DHT22;9069;52.044;7.472;2022-09-23T04:58:59;14.30;69.60
17887;DHT22;9069;52.044;7.472;2022-09-23T05:01:31;14.20;69.60
17887;DHT22;9069;52.044;7.472;2022-09-23T05:04:05;14.20;69.60
17887;DHT22;9069;52.044;7.472;2022-09-23T05:06:33;14.20;69.70
17887;DHT22;9069;52.044;7.472;2022-09-23T05:09:05;14.20;69.70
17887;DHT22;9069;52.044;7.472;2022-09-23T05:11:33;14.20;69.80
17887;DHT22;9069;52.044;7.472;2022-09-23T05:14:00;14.10;69.80
17887;DHT22;9069;52.044;7.472;2022-09-23T05:16:27;14.10;69.90
17887;DHT22;9069;52.044;7.472;2022-09-23T05:18:54;14.10;70.00
17887;DHT22;9069;52.044;7.472;2022-09-23T05:21:23;14.10;70.00
17887;DHT22;9069;52.044;7.472;2022-09-23T05:23:52;14.10;70.20
17887;DHT22;9069;52.044;7.472;2022-09-23T05:26:22;14.10;70.30
17887;DHT22;9069;52.044;7.472;2022-09-23T05:28:49;14.10;70.30
17887;DHT22;9069;52.044;7.472;2022-09-23T05:31:17;14.00;70.30
17887;DHT22;9069;52.044;7.472;2022-09-23T05:33:48;14.00;70.40
17887;DHT22;9069;52.044;7.472;2022-09-23T05:36:18;14.00;70.50
17887;DHT22;9069;52.044;7.472;2022-09-23T05:38:46;14.00;70.50
17887;DHT22;9069;52.044;7.472;2022-09-23T05:41:14;14.00;70.60
17887;DHT22;9069;52.044;7.472;2022-09-23T05:43:41;14.00;70.70
17887;DHT22;9069;52.044;7.472;2022-09-23T05:46:10;14.00;70.80
17887;DHT22;9069;52.044;7.472;2022-09-23T05:48:38;14.00;70.80
17887;DHT22;9069;52.044;7.472;2022-09-23T05:51:06;14.00;71.10
17887;DHT22;9069;52.044;7.472;2022-09-23T05:53:35;14.00;71.00
17887;DHT22;9069;52.044;7.472;2022-09-23T05:56:02;14.00;71.00
17887;DHT22;9069;52.044;7.472;2022-09-23T05:58:30;14.00;71.10
17887;DHT22;9069;52.044;7.472;2022-09-23T06:00:57;14.00;71.10
17887;DHT22;9069;52.044;7.472;2022-09-23T06:03:24;14.00;71.20
17887;DHT22;9069;52.044;7.472;2022-09-23T06:05:52;14.10;71.40
17887;DHT22;9069;52.044;7.472;2022-09-23T06:08:20;14.10;71.40
17887;DHT22;9069;52.044;7.472;2022-09-23T06:10:47;14.10;71.40
17887;DHT22;9069;52.044;7.472;2022-09-23T06:13:20;14.10;71.40
17887;DHT22;9069;52.044;7.472;2022-09-23T06:15:47;14.10;71.40
17887;DHT22;9069;52.044;7.472;2022-09-23T06:18:14;14.20;71.60
17887;DHT22;9069;52.044;7.472;2022-09-23T06:20:40;14.30;71.50
17887;DHT22;9069;52.044;7.472;2022-09-23T06:23:09;14.20;71.50
17887;DHT22;9069;52.044;7.472;2022-09-23T06:25:37;14.20;71.60
17887;DHT22;9069;52.044;7.472;2022-09-23T06:28:04;14.20;71.50
17887;DHT22;9069;52.044;7.472;2022-09-23T06:30:36;14.20;71.60
17887;DHT22;9069;52.044;7.472;2022-09-23T06:33:03;14.20;71.70
17887;DHT22;9069;52.044;7.472;2022-09-23T06:35:29;14.20;71.90
17887;DHT22;9069;52.044;7.472;2022-09-23T06:38:01;14.30;71.90
17887;DHT22;9069;52.044;7.472;2022-09-23T06:40:28;14.30;71.90
17887;DHT22;9069;52.044;7.472;2022-09-23T06:42:57;14.30;72.70
17887;DHT22;9069;52.044;7.472;2022-09-23T06:45:24;14.30;71.90
17887;DHT22;9069;52.044;7.472;2022-09-23T06:47:54;14.40;72.10
17887;DHT22;9069;52.044;7.472;2022-09-23T06:50:25;14.40;72.20
17887;DHT22;9069;52.044;7.472;2022-09-23T06:52:53;14.50;72.10
17887;DHT22;9069;52.044;7.472;2022-09-23T06:55:24;14.50;72.00
17887;DHT22;9069;52.044;7.472;2022-09-23T06:57:53;14.50;72.90
17887;DHT22;9069;52.044;7.472;2022-09-23T07:00:20;14.60;72.10
17887;DHT22;9069;52.044;7.472;2022-09-23T07:02:47;14.70;72.60
17887;DHT22;9069;52.044;7.472;2022-09-23T07:05:14;14.70;72.20
17887;DHT22;9069;52.044;7.472;2022-09-23T07:07:44;14.80;72.20
17887;DHT22;9069;52.044;7.472;2022-09-23T07:10:11;14.90;72.60
17887;DHT22;9069;52.044;7.472;2022-09-23T07:12:37;15.00;72.70
17887;DHT22;9069;52.044;7.472;2022-09-23T07:15:05;15.10;72.70
17887;DHT22;9069;52.044;7.472;2022-09-23T07:17:32;15.30;73.00
17887;DHT22;9069;52.044;7.472;2022-09-23T07:19:59;15.50;73.10
17887;DHT22;9069;52.044;7.472;2022-09-23T07:22:25;15.80;73.40
17887;DHT22;9069;52.044;7.472;2022-09-23T07:24:53;15.90;73.70
17887;DHT22;9069;52.044;7.472;2022-09-23T07:27:25;16.20;74.00
17887;DHT22;9069;52.044;7.472;2022-09-23T07:29:52;16.50;74.10
17887;DHT22;9069;52.044;7.472;2022-09-23T07:32:21;16.80;74.20
17887;DHT22;9069;52.044;7.472;2022-09-23T07:34:48;17.20;73.70
17887;DHT22;9069;52.044;7.472;2022-09-23T07:37:16;17.60;72.90
17887;DHT22;9069;52.044;7.472;2022-09-23T07:39:43;17.90;72.80
17887;DHT22;9069;52.044;7.472;2022-09-23T07:42:10;18.30;72.80
17887;DHT22;9069;52.044;7.472;2022-09-23T07:44:39;18.60;72.30
17887;DHT22;9069;52.044;7.472;2022-09-23T07:47:07;18.90;71.50
17887;DHT22;9069;52.044;7.472;2022-09-23T07:49:34;19.30;70.50
17887;DHT22;9069;52.044;7.472;2022-09-23T07:52:01;19.60;70.10
17887;DHT22;9069;52.044;7.472;2022-09-23T07:54:28;19.90;69.60
17887;DHT22;9069;52.044;7.472;2022-09-23T07:56:55;20.20;69.00
17887;DHT22;9069;52.044;7.472;2022-09-23T07:59:22;20.50;68.20
17887;DHT22;9069;52.044;7.472;2022-09-23T08:01:50;20.70;67.50
17887;DHT22;9069;52.044;7.472;2022-09-23T08:04:26;21.00;67.20
17887;DHT22;9069;52.044;7.472;2022-09-23T08:07:02;21.30;66.50
17887;DHT22;9069;52.044;7.472;2022-09-23T08:09:35;21.60;66.00
17887;DHT22;9069;52.044;7.472;2022-09-23T08:12:08;21.90;64.70
17887;DHT22;9069;52.044;7.472;2022-09-23T08:14:41;22.20;64.20
17887;DHT22;9069;52.044;7.472;2022-09-23T08:17:08;22.30;63.30
17887;DHT22;9069;52.044;7.472;2022-09-23T08:19:34;22.40;62.60
17887;DHT22;9069;52.044;7.472;2022-09-23T08:22:01;22.50;62.30
17887;DHT22;9069;52.044;7.472;2022-09-23T08:24:28;22.60;62.10
17887;DHT22;9069;52.044;7.472;2022-09-23T08:26:55;22.70;61.90
17887;DHT22;9069;52.044;7.472;2022-09-23T08:29:23;22.90;61.70
17887;DHT22;9069;52.044;7.472;2022-09-23T08:31:51;23.00;61.10
17887;DHT22;9069;52.044;7.472;2022-09-23T08:34:21;23.10;60.70
17887;DHT22;9069;52.044;7.472;2022-09-23T08:36:48;23.20;60.00
17887;DHT22;9069;52.044;7.472;2022-09-23T08:39:17;23.30;60.00
17887;DHT22;9069;52.044;7.472;2022-09-23T08:47:25;23.60;58.80
17887;DHT22;9069;52.044;7.472;2022-09-23T08:49:59;23.60;58.70
17887;DHT22;9069;52.044;7.472;2022-09-23T08:52:33;23.60;58.80
17887;DHT22;9069;52.044;7.472;2022-09-23T08:55:02;23.70;58.80
17887;DHT22;9069;52.044;7.472;2022-09-23T08:57:37;23.70;58.60
17887;DHT22;9069;52.044;7.472;2022-09-23T09:00:05;23.70;58.70
17887;DHT22;9069;52.044;7.472;2022-09-23T09:02:34;23.70;58.30
17887;DHT22;9069;52.044;7.472;2022-09-23T09:05:06;23.70;58.20
17887;DHT22;9069;52.044;7.472;2022-09-23T09:07:36;23.60;58.10
17887;DHT22;9069;52.044;7.472;2022-09-23T09:12:45;23.50;57.90
17887;DHT22;9069;52.044;7.472;2022-09-23T09:15:20;23.40;58.20
17887;DHT22;9069;52.044;7.472;2022-09-23T09:25:47;23.20;58.70
17887;DHT22;9069;52.044;7.472;2022-09-23T09:28:31;23.20;58.10
17887;DHT22;9069;52.044;7.472;2022-09-23T09:31:00;23.20;58.10
17887;DHT22;9069;52.044;7.472;2022-09-23T09:33:37;23.20;58.50
17887;DHT22;9069;52.044;7.472;2022-09-23T09:36:30;23.20;58.40
17887;DHT22;9069;52.044;7.472;2022-09-23T09:38:58;23.20;58.20
17887;DHT22;9069;52.044;7.472;2022-09-23T09:41:26;23.20;58.40
17887;DHT22;9069;52.044;7.472;2022-09-23T09:43:58;23.20;58.20
17887;DHT22;9069;52.044;7.472;2022-09-23T09:46:41;23.20;58.10
17887;DHT22;9069;52.044;7.472;2022-09-23T09:49:34;23.20;57.80
17887;DHT22;9069;52.044;7.472;2022-09-23T09:54:45;23.30;57.50
17887;DHT22;9069;52.044;7.472;2022-09-23T09:57:25;23.30;57.90
17887;DHT22;9069;52.044;7.472;2022-09-23T10:02:45;23.40;57.10
17887;DHT22;9069;52.044;7.472;2022-09-23T10:05:25;23.40;57.40
17887;DHT22;9069;52.044;7.472;2022-09-23T10:07:53;23.40;56.50
17887;DHT22;9069;52.044;7.472;2022-09-23T10:10:24;23.50;57.20
17887;DHT22;9069;52.044;7.472;2022-09-23T10:13:13;23.50;57.00
17887;DHT22;9069;52.044;7.472;2022-09-23T10:15:42;23.50;56.50
17887;DHT22;9069;52.044;7.472;2022-09-23T10:18:18;23.50;56.70
17887;DHT22;9069;52.044;7.472;2022-09-23T10:20:47;23.60;56.40
17887;DHT22;9069;52.044;7.472;2022-09-23T10:23:25;23.50;56.50
17887;DHT22;9069;52.044;7.472;2022-09-23T10:26:01;23.50;56.00
17887;DHT22;9069;52.044;7.472;2022-09-23T10:28:40;23.50;56.20
17887;DHT22;9069;52.044;7.472;2022-09-23T10:31:35;23.50;56.40
17887;DHT22;9069;52.044;7.472;2022-09-23T10:34:18;23.50;56.70
17887;DHT22;9069;52.044;7.472;2022-09-23T10:37:06;23.50;56.70
17887;DHT22;9069;52.044;7.472;2022-09-23T10:39:35;23.50;56.80
17887;DHT22;9069;52.044;7.472;2022-09-23T10:42:45;23.50;57.00
17887;DHT22;9069;52.044;7.472;2022-09-23T10:45:38;23.50;56.40
17887;DHT22;9069;52.044;7.472;2022-09-23T10:54:22;23.30;56.30
17887;DHT22;9069;52.044;7.472;2022-09-23T10:57:00;23.30;56.70
17887;DHT22;9069;52.044;7.472;2022-09-23T11:00:12;23.20;57.10
17887;DHT22;9069;52.044;7.472;2022-09-23T11:05:34;23.10;56.30
17887;DHT22;9069;52.044;7.472;2022-09-23T11:23:09;23.10;57.30
17887;DHT22;9069;52.044;7.472;2022-09-23T11:31:31;23.10;57.80
17887;DHT22;9069;52.044;7.472;2022-09-23T11:34:34;23.20;58.10
17887;DHT22;9069;52.044;7.472;2022-09-23T11:37:19;23.10;58.00
17887;DHT22;9069;52.044;7.472;2022-09-23T11:40:01;23.20;57.80
17887;DHT22;9069;52.044;7.472;2022-09-23T11:42:36;23.20;57.60
17887;DHT22;9069;52.044;7.472;2022-09-23T11:45:14;23.20;57.80
17887;DHT22;9069;52.044;7.472;2022-09-23T11:47:57;23.30;57.50
17887;DHT22;9069;52.044;7.472;2022-09-23T11:50:35;23.30;57.20
17887;DHT22;9069;52.044;7.472;2022-09-23T11:55:57;23.40;57.10
17887;DHT22;9069;52.044;7.472;2022-09-23T11:58:30;23.40;57.10
17887;DHT22;9069;52.044;7.472;2022-09-23T12:01:13;23.40;57.00
17887;DHT22;9069;52.044;7.472;2022-09-23T12:04:14;23.50;56.80
17887;DHT22;9069;52.044;7.472;2022-09-23T12:06:51;23.50;56.80
17887;DHT22;9069;52.044;7.472;2022-09-23T12:09:26;23.50;57.10
17887;DHT22;9069;52.044;7.472;2022-09-23T12:12:39;23.50;57.10
17887;DHT22;9069;52.044;7.472;2022-09-23T12:15:24;23.50;56.70
17887;DHT22;9069;52.044;7.472;2022-09-23T12:18:05;23.50;56.70
17887;DHT22;9069;52.044;7.472;2022-09-23T12:26:29;23.50;56.30
17887;DHT22;9069;52.044;7.472;2022-09-23T12:29:01;23.50;56.60
17887;DHT22;9069;52.044;7.472;2022-09-23T12:31:29;23.50;57.10
17887;DHT22;9069;52.044;7.472;2022-09-23T12:34:04;23.60;56.60
17887;DHT22;9069;52.044;7.472;2022-09-23T12:36:34;23.50;56.50
17887;DHT22;9069;52.044;7.472;2022-09-23T12:41:38;23.50;56.50
17887;DHT22;9069;52.044;7.472;2022-09-23T12:46:33;23.50;56.60
17887;DHT22;9069;52.044;7.472;2022-09-23T12:49:03;23.60;56.70
17887;DHT22;9069;52.044;7.472;2022-09-23T12:51:32;23.40;56.50
17887;DHT22;9069;52.044;7.472;2022-09-23T12:59:23;23.50;56.80
17887;DHT22;9069;52.044;7.472;2022-09-23T13:01:51;23.40;56.30
17887;DHT22;9069;52.044;7.472;2022-09-23T13:04:42;23.50;56.40
17887;DHT22;9069;52.044;7.472;2022-09-23T13:07:31;23.40;55.90
17887;DHT22;9069;52.044;7.472;2022-09-23T13:10:09;23.40;56.50
17887;DHT22;9069;52.044;7.472;2022-09-23T13:12:40;23.40;56.30
17887;DHT22;9069;52.044;7.472;2022-09-23T13:15:26;23.40;56.40
17887;DHT22;9069;52.044;7.472;2022-09-23T13:20:54;23.30;56.40
17887;DHT22;9069;52.044;7.472;2022-09-23T13:23:26;23.40;56.50
17887;DHT22;9069;52.044;7.472;2022-09-23T13:26:09;23.30;56.60
17887;DHT22;9069;52.044;7.472;2022-09-23T13:28:45;23.30;56.40
17887;DHT22;9069;52.044;7.472;2022-09-23T13:31:19;23.30;56.40
17887;DHT22;9069;52.044;7.472;2022-09-23T13:33:55;23.30;56.30
17887;DHT22;9069;52.044;7.472;2022-09-23T13:36:26;23.30;56.40
17887;DHT22;9069;52.044;7.472;2022-09-23T13:38:52;23.30;56.50
17887;DHT22;9069;52.044;7.472;2022-09-23T13:41:24;23.30;56.60
17887;DHT22;9069;52.044;7.472;2022-09-23T13:43:55;23.30;56.40
17887;DHT22;9069;52.044;7.472;2022-09-23T13:46:29;23.30;56.40
17887;DHT22;9069;52.044;7.472;2022-09-23T13:48:56;23.30;56.50
17887;DHT22;9069;52.044;7.472;2022-09-23T13:51:29;23.30;56.40
17887;DHT22;9069;52.044;7.472;2022-09-23T13:54:00;23.30;56.10
17887;DHT22;9069;52.044;7.472;2022-09-23T13:56:29;23.20;56.10
17887;DHT22;9069;52.044;7.472;2022-09-23T14:02:11;23.20;56.20
17887;DHT22;9069;52.044;7.472;2022-09-23T14:04:38;23.20;55.70
17887;DHT22;9069;52.044;7.472;2022-09-23T14:07:11;23.20;56.00
17887;DHT22;9069;52.044;7.472;2022-09-23T14:09:50;23.20;56.00
17887;DHT22;9069;52.044;7.472;2022-09-23T14:12:17;23.20;55.60
17887;DHT22;9069;52.044;7.472;2022-09-23T14:14:49;23.20;55.80
17887;DHT22;9069;52.044;7.472;2022-09-23T14:17:18;23.10;55.60
17887;DHT22;9069;52.044;7.472;2022-09-23T14:19:46;23.10;55.70
17887;DHT22;9069;52.044;7.472;2022-09-23T14:22:28;23.10;55.80
17887;DHT22;9069;52.044;7.472;2022-09-23T14:24:55;23.10;55.40
17887;DHT22;9069;52.044;7.472;2022-09-23T14:27:27;23.10;55.70
17887;DHT22;9069;52.044;7.472;2022-09-23T14:29:55;23.00;55.60
17887;DHT22;9069;52.044;7.472;2022-09-23T14:32:24;23.00;55.80
17887;DHT22;9069;52.044;7.472;2022-09-23T14:37:41;22.90;55.70
17887;DHT22;9069;52.044;7.472;2022-09-23T14:45:56;22.90;55.90
17887;DHT22;9069;52.044;7.472;2022-09-23T14:48:26;22.80;56.00
17887;DHT22;9069;52.044;7.472;2022-09-23T14:50:56;22.80;55.90
17887;DHT22;9069;52.044;7.472;2022-09-23T14:53:31;22.80;56.00
17887;DHT22;9069;52.044;7.472;2022-09-23T15:09:29;22.70;55.80
17887;DHT22;9069;52.044;7.472;2022-09-23T15:12:03;22.70;55.60
17887;DHT22;9069;52.044;7.472;2022-09-23T15:14:35;22.70;55.70
17887;DHT22;9069;52.044;7.472;2022-09-23T15:19:57;22.60;55.30
17887;DHT22;9069;52.044;7.472;2022-09-23T15:22:25;22.70;55.40
17887;DHT22;9069;52.044;7.472;2022-09-23T15:24:53;22.60;55.40
17887;DHT22;9069;52.044;7.472;2022-09-23T15:29:54;22.60;55.40
17887;DHT22;9069;52.044;7.472;2022-09-23T15:32:23;22.60;55.70
17887;DHT22;9069;52.044;7.472;2022-09-23T15:34:50;22.50;55.70
17887;DHT22;9069;52.044;7.472;2022-09-23T15:37:16;22.50;55.70
17887;DHT22;9069;52.044;7.472;2022-09-23T15:39:43;22.50;55.80
17887;DHT22;9069;52.044;7.472;2022-09-23T15:42:10;22.40;55.70
17887;DHT22;9069;52.044;7.472;2022-09-23T15:44:37;22.40;55.60
17887;DHT22;9069;52.044;7.472;2022-09-23T15:47:04;22.40;55.40
17887;DHT22;9069;52.044;7.472;2022-09-23T15:49:33;22.40;55.50
17887;DHT22;9069;52.044;7.472;2022-09-23T15:52:03;22.30;55.50
17887;DHT22;9069;52.044;7.472;2022-09-23T15:54:30;22.30;55.50
17887;DHT22;9069;52.044;7.472;2022-09-23T15:57:00;22.30;55.80
17887;DHT22;9069;52.044;7.472;2022-09-23T15:59:28;22.20;55.90
17887;DHT22;9069;52.044;7.472;2022-09-23T16:01:59;22.20;55.90
17887;DHT22;9069;52.044;7.472;2022-09-23T16:04:27;22.20;55.90
17887;DHT22;9069;52.044;7.472;2022-09-23T16:06:53;22.20;56.00
17887;DHT22;9069;52.044;7.472;2022-09-23T16:09:20;22.10;56.00
17887;DHT22;9069;52.044;7.472;2022-09-23T16:11:47;22.10;56.40
17887;DHT22;9069;52.044;7.472;2022-09-23T16:14:16;22.10;56.50
17887;DHT22;9069;52.044;7.472;2022-09-23T16:16:43;22.00;56.50
17887;DHT22;9069;52.044;7.472;2022-09-23T16:19:14;22.00;56.50
17887;DHT22;9069;52.044;7.472;2022-09-23T16:21:41;22.00;56.60
17887;DHT22;9069;52.044;7.472;2022-09-23T16:24:16;22.00;56.60
17887;DHT22;9069;52.044;7.472;2022-09-23T16:26:45;21.90;56.80
17887;DHT22;9069;52.044;7.472;2022-09-23T16:29:13;21.90;57.00
17887;DHT22;9069;52.044;7.472;2022-09-23T16:31:40;21.90;57.00
17887;DHT22;9069;52.044;7.472;2022-09-23T16:34:07;21.80;57.30
17887;DHT22;9069;52.044;7.472;2022-09-23T16:36:37;21.80;57.50
17887;DHT22;9069;52.044;7.472;2022-09-23T16:39:07;21.80;57.50
17887;DHT22;9069;52.044;7.472;2022-09-23T16:41:35;21.80;57.50
17887;DHT22;9069;52.044;7.472;2022-09-23T16:44:03;21.70;57.40
17887;DHT22;9069;52.044;7.472;2022-09-23T16:46:31;21.70;57.50
17887;DHT22;9069;52.044;7.472;2022-09-23T16:48:59;21.70;57.90
17887;DHT22;9069;52.044;7.472;2022-09-23T16:51:31;21.60;58.20
17887;DHT22;9069;52.044;7.472;2022-09-23T16:54:09;21.60;58.40
17887;DHT22;9069;52.044;7.472;2022-09-23T16:56:41;21.60;58.60
17887;DHT22;9069;52.044;7.472;2022-09-23T16:59:12;21.50;58.80
17887;DHT22;9069;52.044;7.472;2022-09-23T17:01:39;21.50;58.90
17887;DHT22;9069;52.044;7.472;2022-09-23T17:04:25;21.40;59.00
17887;DHT22;9069;52.044;7.472;2022-09-23T17:06:53;21.40;59.10
17887;DHT22;9069;52.044;7.472;2022-09-23T17:09:27;21.40;59.20
17887;DHT22;9069;52.044;7.472;2022-09-23T17:12:08;21.30;59.40
17887;DHT22;9069;52.044;7.472;2022-09-23T17:14:36;21.30;59.60
17887;DHT22;9069;52.044;7.472;2022-09-23T17:17:03;21.20;59.50
17887;DHT22;9069;52.044;7.472;2022-09-23T17:19:30;21.20;59.70
17887;DHT22;9069;52.044;7.472;2022-09-23T17:21:59;21.20;59.90
17887;DHT22;9069;52.044;7.472;2022-09-23T17:24:25;21.10;60.00
17887;DHT22;9069;52.044;7.472;2022-09-23T17:26:52;21.10;60.10
17887;DHT22;9069;52.044;7.472;2022-09-23T17:29:19;21.10;60.40
17887;DHT22;9069;52.044;7.472;2022-09-23T17:31:46;21.00;60.50
17887;DHT22;9069;52.044;7.472;2022-09-23T17:34:12;21.00;60.70
17887;DHT22;9069;52.044;7.472;2022-09-23T17:36:39;20.90;60.80
17887;DHT22;9069;52.044;7.472;2022-09-23T17:39:06;20.90;60.90
17887;DHT22;9069;52.044;7.472;2022-09-23T17:41:32;20.90;61.10
17887;DHT22;9069;52.044;7.472;2022-09-23T17:43:59;20.80;61.20
17887;DHT22;9069;52.044;7.472;2022-09-23T17:46:26;20.80;61.40
17887;DHT22;9069;52.044;7.472;2022-09-23T17:48:54;20.70;61.40
17887;DHT22;9069;52.044;7.472;2022-09-23T17:51:21;20.70;61.60
17887;DHT22;9069;52.044;7.472;2022-09-23T17:53:48;20.70;61.60
17887;DHT22;9069;52.044;7.472;2022-09-23T17:56:23;20.70;61.70
17887;DHT22;9069;52.044;7.472;2022-09-23T17:58:59;20.60;62.20
17887;DHT22;9069;52.044;7.472;2022-09-23T18:01:27;20.60;62.50
17887;DHT22;9069;52.044;7.472;2022-09-23T18:03:55;20.60;62.40
17887;DHT22;9069;52.044;7.472;2022-09-23T18:06:24;20.60;62.70
17887;DHT22;9069;52.044;7.472;2022-09-23T18:08:51;20.50;62.70
17887;DHT22;9069;52.044;7.472;2022-09-23T18:11:20;20.50;63.00
17887;DHT22;9069;52.044;7.472;2022-09-23T18:13:49;20.40;63.60
17887;DHT22;9069;52.044;7.472;2022-09-23T18:16:17;20.40;64.00
17887;DHT22;9069;52.044;7.472;2022-09-23T18:18:51;20.40;64.50
17887;DHT22;9069;52.044;7.472;2022-09-23T18:21:20;20.30;65.40
17887;DHT22;9069;52.044;7.472;2022-09-23T18:23:47;20.30;65.30
17887;DHT22;9069;52.044;7.472;2022-09-23T18:26:16;20.20;65.50
17887;DHT22;9069;52.044;7.472;2022-09-23T18:28:43;20.20;65.90
17887;DHT22;9069;52.044;7.472;2022-09-23T18:31:10;20.20;66.10
17887;DHT22;9069;52.044;7.472;2022-09-23T18:33:37;20.20;66.30
17887;DHT22;9069;52.044;7.472;2022-09-23T18:36:05;20.10;66.30
17887;DHT22;9069;52.044;7.472;2022-09-23T18:38:32;20.10;66.60
17887;DHT22;9069;52.044;7.472;2022-09-23T18:40:59;20.10;66.60
17887;DHT22;9069;52.044;7.472;2022-09-23T18:43:28;20.00;66.70